createdAt,value
2022-11-03T00:01:52.409Z,1.70
2022-11-03T00:04:21.511Z,1.70
2022-11-03T00:06:53.362Z,2.10
2022-11-03T00:09:21.505Z,1.73
2022-11-03T00:11:52.802Z,2.50
2022-11-03T00:14:20.050Z,1.70
2022-11-03T00:16:47.170Z,1.60
2022-11-03T00:19:18.948Z,1.57
2022-11-03T00:21:46.618Z,1.80
2022-11-03T00:24:14.188Z,1.83
2022-11-03T00:26:41.009Z,1.50
2022-11-03T00:29:13.073Z,1.70
2022-11-03T00:31:42.236Z,1.80
2022-11-03T00:34:09.418Z,1.50
2022-11-03T00:36:39.287Z,1.50
2022-11-03T00:39:06.866Z,1.67
2022-11-03T00:41:34.219Z,1.93
2022-11-03T00:44:01.212Z,1.50
2022-11-03T00:46:28.029Z,1.50
2022-11-03T00:48:54.803Z,1.70
2022-11-03T00:51:25.663Z,2.27
2022-11-03T00:53:53.290Z,1.90
2022-11-03T00:56:28.946Z,1.70
2022-11-03T00:58:57.429Z,1.70
2022-11-03T01:01:26.877Z,2.17
2022-11-03T01:04:14.902Z,2.07
2022-11-03T01:06:54.446Z,2.07
2022-11-03T01:09:31.176Z,2.00
2022-11-03T01:12:07.232Z,2.00
2022-11-03T01:14:36.115Z,1.90
2022-11-03T01:17:14.178Z,1.50
2022-11-03T01:19:41.007Z,1.83
2022-11-03T01:22:10.830Z,2.23
2022-11-03T01:24:40.395Z,2.20
2022-11-03T01:27:08.057Z,1.80
2022-11-03T01:29:34.770Z,1.87
2022-11-03T01:32:01.744Z,1.73
2022-11-03T01:34:28.524Z,1.83
2022-11-03T01:36:55.257Z,1.70
2022-11-03T01:39:22.222Z,2.23
2022-11-03T01:41:51.706Z,2.03
2022-11-03T01:44:18.645Z,1.90
2022-11-03T01:46:56.134Z,2.03
2022-11-03T01:49:27.613Z,1.60
2022-11-03T01:52:06.247Z,2.37
2022-11-03T01:54:36.350Z,1.83
2022-11-03T01:57:10.406Z,1.80
2022-11-03T01:59:37.933Z,1.90
2022-11-03T02:02:04.913Z,2.10
2022-11-03T02:04:33.601Z,1.90
2022-11-03T02:07:14.331Z,1.60
2022-11-03T02:09:41.349Z,1.47
2022-11-03T02:12:08.919Z,1.97
2022-11-03T02:14:49.593Z,2.13
2022-11-03T02:17:20.388Z,1.47
2022-11-03T02:19:56.277Z,1.60
2022-11-03T02:22:56.049Z,1.60
2022-11-03T02:25:49.197Z,1.67
2022-11-03T02:28:19.766Z,1.80
2022-11-03T02:31:11.099Z,1.97
2022-11-03T02:33:48.716Z,2.43
2022-11-03T02:36:27.398Z,1.93
2022-11-03T02:39:03.987Z,2.00
2022-11-03T02:41:34.436Z,2.10
2022-11-03T02:44:02.859Z,1.87
2022-11-03T02:46:32.107Z,1.80
2022-11-03T02:49:01.711Z,1.80
2022-11-03T02:51:29.615Z,2.00
2022-11-03T02:54:35.126Z,1.93
2022-11-03T02:57:26.466Z,2.30
2022-11-03T03:00:00.267Z,1.73
2022-11-03T03:02:44.639Z,1.80
2022-11-03T03:05:15.371Z,2.10
2022-11-03T03:07:49.162Z,1.87
2022-11-03T03:10:23.198Z,1.73
2022-11-03T03:12:57.257Z,1.83
2022-11-03T03:15:46.485Z,2.07
2022-11-03T03:18:42.314Z,2.37
2022-11-03T03:21:18.292Z,1.57
2022-11-03T03:23:51.248Z,2.13
2022-11-03T03:26:28.596Z,2.13
2022-11-03T03:29:03.806Z,2.20
2022-11-03T03:31:35.322Z,1.97
2022-11-03T03:34:16.936Z,1.83
2022-11-03T03:36:56.528Z,1.80
2022-11-03T03:39:27.532Z,1.70
2022-11-03T03:41:55.516Z,1.53
2022-11-03T03:44:23.482Z,1.70
2022-11-03T03:46:56.357Z,2.07
2022-11-03T03:49:23.195Z,2.40
2022-11-03T03:51:51.648Z,2.03
2022-11-03T03:54:18.596Z,1.50
2022-11-03T03:56:45.356Z,1.80
2022-11-03T03:59:12.075Z,1.50
2022-11-03T04:01:39.111Z,2.00
2022-11-03T04:04:06.002Z,1.87
2022-11-03T04:06:32.827Z,1.73
2022-11-03T04:08:59.586Z,1.80
2022-11-03T04:11:44.926Z,2.17
2022-11-03T04:14:30.406Z,1.77
2022-11-03T04:17:15.420Z,2.07
2022-11-03T04:20:01.049Z,2.53
2022-11-03T04:22:31.561Z,1.83
2022-11-03T04:24:58.853Z,2.17
2022-11-03T04:27:30.321Z,2.00
2022-11-03T04:30:01.857Z,1.93
2022-11-03T04:32:29.931Z,1.93
2022-11-03T04:34:56.811Z,1.53
2022-11-03T04:37:26.762Z,2.10
2022-11-03T04:39:59.368Z,2.00
2022-11-03T04:42:26.474Z,2.03
2022-11-03T04:44:53.440Z,1.93
2022-11-03T04:47:20.226Z,1.97
2022-11-03T04:49:48.073Z,2.00
2022-11-03T04:52:19.841Z,2.13
2022-11-03T04:54:49.493Z,1.97
2022-11-03T04:57:17.917Z,2.10
2022-11-03T04:59:50.908Z,2.00
2022-11-03T05:02:21.921Z,1.80
2022-11-03T05:04:48.891Z,2.10
2022-11-03T05:07:18.695Z,2.40
2022-11-03T05:09:45.717Z,1.67
2022-11-03T05:12:12.620Z,2.00
2022-11-03T05:14:39.552Z,1.90
2022-11-03T05:17:26.156Z,1.90
2022-11-03T05:20:01.419Z,2.00
2022-11-03T05:22:36.260Z,1.97
2022-11-03T05:25:27.852Z,2.17
2022-11-03T05:27:54.716Z,2.60
2022-11-03T05:30:21.715Z,2.10
2022-11-03T05:32:48.621Z,1.77
2022-11-03T05:35:22.536Z,2.57
2022-11-03T05:37:52.701Z,2.07
2022-11-03T05:40:26.921Z,2.20
2022-11-03T05:43:00.035Z,2.10
2022-11-03T05:45:36.890Z,2.17
2022-11-03T05:48:13.491Z,2.23
2022-11-03T05:50:41.707Z,2.30
2022-11-03T05:53:27.974Z,1.73
2022-11-03T05:55:56.053Z,2.30
2022-11-03T05:58:29.006Z,1.90
2022-11-03T06:00:57.698Z,2.33
2022-11-03T06:03:28.079Z,2.07
2022-11-03T06:05:56.061Z,2.17
2022-11-03T06:08:30.530Z,1.93
2022-11-03T06:10:59.900Z,1.90
2022-11-03T06:13:33.100Z,2.30
2022-11-03T06:16:35.601Z,2.33
2022-11-03T06:19:30.031Z,2.47
2022-11-03T06:22:02.652Z,2.03
2022-11-03T06:24:32.349Z,2.20
2022-11-03T06:26:59.543Z,2.30
2022-11-03T06:29:26.760Z,2.37
2022-11-03T06:31:57.444Z,2.57
2022-11-03T06:34:44.561Z,2.37
2022-11-03T06:37:16.238Z,2.10
2022-11-03T06:39:43.384Z,2.00
2022-11-03T06:42:19.631Z,2.00
2022-11-03T06:44:48.754Z,2.47
2022-11-03T06:47:24.391Z,2.33
2022-11-03T06:49:53.829Z,2.30
2022-11-03T06:52:29.135Z,2.50
2022-11-03T06:55:10.858Z,2.30
2022-11-03T06:57:44.576Z,2.20
2022-11-03T07:00:35.345Z,2.10
2022-11-03T07:03:24.084Z,2.37
2022-11-03T07:05:51.081Z,1.90
2022-11-03T07:08:26.746Z,2.20
2022-11-03T07:11:18.770Z,2.27
2022-11-03T07:14:07.744Z,2.27
2022-11-03T07:16:50.796Z,1.97
2022-11-03T07:19:26.774Z,2.30
2022-11-03T07:21:58.593Z,2.10
2022-11-03T07:24:35.018Z,2.20
2022-11-03T07:27:17.413Z,2.50
2022-11-03T07:29:45.791Z,2.50
2022-11-03T07:32:22.021Z,2.30
2022-11-03T07:34:51.904Z,2.17
2022-11-03T07:37:22.838Z,2.23
2022-11-03T07:39:51.121Z,2.27
2022-11-03T07:42:23.205Z,2.33
2022-11-03T07:44:50.954Z,2.63
2022-11-03T07:47:25.898Z,2.37
2022-11-03T07:49:53.505Z,2.27
2022-11-03T07:52:22.912Z,2.27
2022-11-03T07:54:52.271Z,2.10
2022-11-03T07:57:21.680Z,2.00
2022-11-03T07:59:56.635Z,2.13
2022-11-03T08:02:37.543Z,2.13
2022-11-03T08:05:07.639Z,2.27
2022-11-03T08:07:34.549Z,2.80
2022-11-03T08:10:01.441Z,2.53
2022-11-03T08:12:28.544Z,2.17
2022-11-03T08:14:55.293Z,1.90
2022-11-03T08:17:22.370Z,2.63
2022-11-03T08:19:49.329Z,2.00
2022-11-03T08:22:16.109Z,1.90
2022-11-03T08:24:42.864Z,1.97
2022-11-03T08:27:09.652Z,2.30
2022-11-03T08:29:36.648Z,2.00
2022-11-03T08:32:03.579Z,2.17
2022-11-03T08:34:30.524Z,1.90
2022-11-03T08:36:57.928Z,2.20
2022-11-03T08:39:24.708Z,1.93
2022-11-03T08:41:51.548Z,2.30
2022-11-03T08:44:18.665Z,2.20
2022-11-03T08:46:45.494Z,2.00
2022-11-03T08:49:12.365Z,2.10
2022-11-03T08:51:44.224Z,2.20
2022-11-03T08:54:12.022Z,2.20
2022-11-03T08:56:38.868Z,2.23
2022-11-03T08:59:05.608Z,2.17
2022-11-03T09:01:32.646Z,2.23
2022-11-03T09:03:59.820Z,2.00
2022-11-03T09:06:26.818Z,2.10
2022-11-03T09:11:40.957Z,2.30
2022-11-03T09:14:08.082Z,2.57
2022-11-03T09:16:34.971Z,2.00
2022-11-03T09:19:01.781Z,1.93
2022-11-03T09:21:28.565Z,2.40
2022-11-03T09:24:00.217Z,2.50
2022-11-03T09:26:27.964Z,2.53
2022-11-03T09:28:54.766Z,2.40
2022-11-03T09:31:21.717Z,2.40
2022-11-03T09:33:48.555Z,2.50
2022-11-03T09:36:15.554Z,2.20
2022-11-03T09:38:42.971Z,1.80
2022-11-03T09:41:24.829Z,2.30
2022-11-03T09:43:58.199Z,2.27
2022-11-03T09:46:27.194Z,2.50
2022-11-03T09:48:55.462Z,2.00
2022-11-03T09:51:23.792Z,2.43
2022-11-03T09:53:50.591Z,2.33
2022-11-03T09:56:21.645Z,2.27
2022-11-03T09:58:53.055Z,3.23
2022-11-03T10:01:21.722Z,2.30
2022-11-03T10:03:48.623Z,2.07
2022-11-03T10:06:17.560Z,2.03
2022-11-03T10:08:47.426Z,1.70
2022-11-03T10:11:15.085Z,2.40
2022-11-03T10:13:48.104Z,2.20
2022-11-03T10:16:20.145Z,2.23
2022-11-03T10:18:47.732Z,2.13
2022-11-03T10:21:26.563Z,2.33
2022-11-03T10:23:53.634Z,2.13
2022-11-03T10:26:21.097Z,2.20
2022-11-03T10:28:57.642Z,2.10
2022-11-03T10:31:35.734Z,1.87
2022-11-03T10:34:02.959Z,2.13
2022-11-03T10:36:32.225Z,2.20
2022-11-03T10:39:01.871Z,2.60
2022-11-03T10:41:31.634Z,2.43
2022-11-03T10:44:20.317Z,2.80
2022-11-03T10:47:04.221Z,2.27
2022-11-03T10:49:39.317Z,2.30
2022-11-03T10:52:30.192Z,2.27
2022-11-03T10:54:59.494Z,2.67
2022-11-03T10:57:27.598Z,2.17
2022-11-03T10:59:55.453Z,2.37
2022-11-03T11:02:24.022Z,2.23
2022-11-03T11:05:10.143Z,2.40
2022-11-03T11:07:41.854Z,2.70
2022-11-03T11:10:14.150Z,2.20
2022-11-03T11:13:15.759Z,2.83
2022-11-03T11:15:48.023Z,2.70
2022-11-03T11:18:33.079Z,2.53
2022-11-03T11:21:01.554Z,2.27
2022-11-03T11:23:28.628Z,2.47
2022-11-03T11:26:11.314Z,2.40
2022-11-03T11:28:43.653Z,1.90
2022-11-03T11:31:33.518Z,2.00
2022-11-03T11:34:09.774Z,2.33
2022-11-03T11:36:41.948Z,2.60
2022-11-03T11:39:10.861Z,2.40
2022-11-03T11:42:14.729Z,2.47
2022-11-03T11:44:47.386Z,2.90
2022-11-03T11:47:32.211Z,2.57
2022-11-03T11:50:10.782Z,2.53
2022-11-03T11:53:04.260Z,2.60
2022-11-03T11:55:40.976Z,2.10
2022-11-03T11:58:30.201Z,2.17
2022-11-03T12:01:06.160Z,2.17
2022-11-03T12:03:42.929Z,2.57
2022-11-03T12:06:13.278Z,2.63
2022-11-03T12:08:40.456Z,2.10
2022-11-03T12:11:09.364Z,2.40
2022-11-03T12:13:52.400Z,2.20
2022-11-03T12:16:40.233Z,2.07
2022-11-03T12:19:33.072Z,2.47
2022-11-03T12:22:00.373Z,2.70
2022-11-03T12:24:32.891Z,2.20
2022-11-03T12:27:00.800Z,2.47
2022-11-03T12:29:27.918Z,2.00
2022-11-03T12:31:55.014Z,1.93
2022-11-03T12:34:22.169Z,2.13
2022-11-03T12:36:54.765Z,2.07
2022-11-03T12:39:23.187Z,2.63
2022-11-03T12:41:49.954Z,2.23
2022-11-03T12:44:16.889Z,2.00
2022-11-03T12:46:43.834Z,2.40
2022-11-03T12:49:10.663Z,1.90
2022-11-03T12:51:42.993Z,2.10
2022-11-03T12:54:09.938Z,2.10
2022-11-03T12:56:37.160Z,2.53
2022-11-03T12:59:04.185Z,2.13
2022-11-03T13:01:31.098Z,2.13
2022-11-03T13:03:58.070Z,2.80
2022-11-03T13:06:27.266Z,1.97
2022-11-03T13:08:54.286Z,2.10
2022-11-03T13:11:39.979Z,1.80
2022-11-03T13:14:06.756Z,2.23
2022-11-03T13:16:33.696Z,1.93
2022-11-03T13:19:00.855Z,2.30
2022-11-03T13:21:27.837Z,2.37
2022-11-03T13:23:57.547Z,2.47
2022-11-03T13:26:24.504Z,1.83
2022-11-03T13:28:51.294Z,2.20
2022-11-03T13:31:18.111Z,2.00
2022-11-03T13:33:44.841Z,1.73
2022-11-03T13:36:11.704Z,2.20
2022-11-03T13:38:41.492Z,2.00
2022-11-03T13:41:09.236Z,2.03
2022-11-03T13:43:36.537Z,2.10
2022-11-03T13:46:04.924Z,2.27
2022-11-03T13:51:19.165Z,1.93
2022-11-03T13:59:28.003Z,2.07
2022-11-03T14:04:43.477Z,2.20
2022-11-03T14:07:11.118Z,2.20
2022-11-03T14:09:38.212Z,1.90
2022-11-03T14:12:23.964Z,1.85
2022-11-03T14:14:50.800Z,2.00
2022-11-03T14:17:17.574Z,2.07
2022-11-03T14:19:48.871Z,2.27
2022-11-03T14:22:19.863Z,1.83
2022-11-03T14:24:46.790Z,1.80
2022-11-03T14:27:15.722Z,1.93
2022-11-03T14:29:43.844Z,2.13
2022-11-03T14:32:11.620Z,1.67
2022-11-03T14:34:39.086Z,1.73
2022-11-03T14:37:09.060Z,2.13
2022-11-03T14:39:36.887Z,1.87
2022-11-03T14:42:12.102Z,2.20
2022-11-03T14:44:39.938Z,2.17
2022-11-03T14:47:09.050Z,2.30
2022-11-03T14:49:38.386Z,2.20
2022-11-03T14:52:07.432Z,2.13
2022-11-03T14:54:35.586Z,2.00
2022-11-03T14:57:03.368Z,2.30
2022-11-03T14:59:30.290Z,1.80
2022-11-03T15:01:58.173Z,2.13
2022-11-03T15:04:27.264Z,1.90
2022-11-03T15:06:54.521Z,1.80
2022-11-03T15:09:21.351Z,2.53
2022-11-03T15:11:48.331Z,2.17
2022-11-03T15:14:15.311Z,2.10
2022-11-03T15:16:42.351Z,1.63
2022-11-03T15:19:09.271Z,2.00
2022-11-03T15:21:36.174Z,2.07
2022-11-03T15:26:50.531Z,1.90
2022-11-03T15:29:17.618Z,1.80
2022-11-03T15:31:47.962Z,1.93
2022-11-03T15:34:16.060Z,2.10
2022-11-03T15:36:43.036Z,1.90
2022-11-03T15:39:09.848Z,2.00
2022-11-03T15:41:36.744Z,1.80
2022-11-03T15:44:03.667Z,1.90
2022-11-03T15:46:30.476Z,1.80
2022-11-03T15:48:57.736Z,1.70
2022-11-03T15:51:25.063Z,1.77
2022-11-03T15:53:57.877Z,2.07
2022-11-03T15:56:26.034Z,8.17
2022-11-03T15:58:52.854Z,1.60
2022-11-03T16:01:19.840Z,1.33
2022-11-03T16:03:46.804Z,2.00
2022-11-03T16:06:13.821Z,1.73
2022-11-03T16:08:40.718Z,2.40
2022-11-03T16:11:07.582Z,1.80
2022-11-03T16:13:34.423Z,1.87
2022-11-03T16:16:01.350Z,1.80
2022-11-03T16:18:28.215Z,1.97
2022-11-03T16:20:54.947Z,1.50
2022-11-03T16:23:21.794Z,1.63
2022-11-03T16:25:48.711Z,1.70
2022-11-03T16:28:15.712Z,1.70
2022-11-03T16:30:42.704Z,1.97
2022-11-03T16:33:10.140Z,1.60
2022-11-03T16:35:37.081Z,2.27
2022-11-03T16:38:03.933Z,1.83
2022-11-03T16:40:30.723Z,2.03
2022-11-03T16:42:57.505Z,1.97
2022-11-03T16:45:26.590Z,2.10
2022-11-03T16:47:54.208Z,2.10
2022-11-03T16:50:21.514Z,1.60
2022-11-03T16:52:49.325Z,1.63
2022-11-03T16:55:17.759Z,2.03
2022-11-03T16:57:45.720Z,1.70
2022-11-03T17:00:20.223Z,2.07
2022-11-03T17:02:47.586Z,2.10
2022-11-03T17:05:16.702Z,1.67
2022-11-03T17:07:45.402Z,1.67
2022-11-03T17:10:16.195Z,1.90
2022-11-03T17:12:43.255Z,2.17
2022-11-03T17:15:10.490Z,2.40
2022-11-03T17:17:37.896Z,2.17
2022-11-03T17:20:06.182Z,1.87
2022-11-03T17:22:33.040Z,1.90
2022-11-03T17:25:01.631Z,2.23
2022-11-03T17:27:44.221Z,2.17
2022-11-03T17:30:23.073Z,2.10
2022-11-03T17:32:53.204Z,1.87
2022-11-03T17:35:42.240Z,1.90
2022-11-03T17:38:15.255Z,2.20
2022-11-03T17:40:44.706Z,2.50
2022-11-03T17:43:23.362Z,2.03
2022-11-03T17:45:50.824Z,2.13
2022-11-03T17:48:17.881Z,2.67
2022-11-03T17:50:49.427Z,2.50
2022-11-03T17:53:23.499Z,2.20
2022-11-03T17:56:08.960Z,2.20
2022-11-03T17:58:45.911Z,2.50
2022-11-03T18:01:27.399Z,2.13
2022-11-03T18:03:54.695Z,2.57
2022-11-03T18:06:22.229Z,2.63
2022-11-03T18:08:49.913Z,2.40
2022-11-03T18:11:43.288Z,2.50
2022-11-03T18:14:10.279Z,2.90
2022-11-03T18:16:37.426Z,2.50
2022-11-03T18:19:04.309Z,2.70
2022-11-03T18:21:31.279Z,2.93
2022-11-03T18:23:58.894Z,2.23
2022-11-03T18:26:27.172Z,2.50
2022-11-03T18:28:54.241Z,2.73
2022-11-03T18:31:24.721Z,2.43
2022-11-03T18:33:52.532Z,2.73
2022-11-03T18:36:20.145Z,2.83
2022-11-03T18:38:48.420Z,2.93
2022-11-03T18:41:38.874Z,3.00
2022-11-03T18:44:30.597Z,2.50
2022-11-03T18:46:58.433Z,3.43
2022-11-03T18:49:25.951Z,3.10
2022-11-03T18:52:03.442Z,3.03
2022-11-03T18:54:32.833Z,3.27
2022-11-03T18:57:00.300Z,3.10
2022-11-03T18:59:32.130Z,3.60
2022-11-03T19:01:59.434Z,3.20
2022-11-03T19:04:29.676Z,3.03
2022-11-03T19:06:57.494Z,3.40
2022-11-03T19:09:26.732Z,3.43
2022-11-03T19:11:56.633Z,3.77
2022-11-03T19:14:28.626Z,4.03
2022-11-03T19:19:44.796Z,3.73
2022-11-03T19:22:14.488Z,3.73
2022-11-03T19:24:42.179Z,3.87
2022-11-03T19:27:47.541Z,3.60
2022-11-03T19:30:17.523Z,3.63
2022-11-03T19:32:50.425Z,3.70
2022-11-03T19:35:42.255Z,3.60
2022-11-03T19:38:15.002Z,3.67
2022-11-03T19:41:01.813Z,3.27
2022-11-03T19:43:34.203Z,3.83
2022-11-03T19:46:01.787Z,4.03
2022-11-03T19:48:31.911Z,3.43
2022-11-03T19:51:01.433Z,3.53
2022-11-03T19:53:29.759Z,3.83
2022-11-03T19:55:57.321Z,3.70
2022-11-03T19:58:26.939Z,3.57
2022-11-03T20:00:54.936Z,3.80
2022-11-03T20:03:22.756Z,3.90
2022-11-03T20:05:53.692Z,3.80
2022-11-03T20:08:23.871Z,3.50
2022-11-03T20:10:51.472Z,3.37
2022-11-03T20:13:20.836Z,3.37
2022-11-03T20:15:48.088Z,3.50
2022-11-03T20:18:18.050Z,3.33
2022-11-03T20:20:48.209Z,3.47
2022-11-03T20:23:18.361Z,3.23
2022-11-03T20:25:45.492Z,3.57
2022-11-03T20:28:25.384Z,3.70
2022-11-03T20:30:53.235Z,3.43
2022-11-03T20:33:22.434Z,3.97
2022-11-03T20:35:51.617Z,3.83
2022-11-03T20:38:20.428Z,3.83
2022-11-03T20:40:49.128Z,3.87
2022-11-03T20:43:32.928Z,3.80
2022-11-03T20:46:00.294Z,3.90
2022-11-03T20:48:27.522Z,4.13
2022-11-03T20:50:57.199Z,3.90
2022-11-03T20:53:26.045Z,3.67
2022-11-03T20:55:53.509Z,3.70
2022-11-03T20:58:20.413Z,4.10
2022-11-03T21:00:49.068Z,4.17
2022-11-03T21:03:38.036Z,4.40
2022-11-03T21:06:05.150Z,4.67
2022-11-03T21:08:32.040Z,4.57
2022-11-03T21:11:18.936Z,4.43
2022-11-03T21:13:45.851Z,4.70
2022-11-03T21:16:31.467Z,4.13
2022-11-03T21:19:17.159Z,4.73
2022-11-03T21:21:47.885Z,4.80
2022-11-03T21:24:15.112Z,4.60
2022-11-03T21:26:42.326Z,4.90
2022-11-03T21:29:09.217Z,4.43
2022-11-03T21:31:36.121Z,4.17
2022-11-03T21:34:02.917Z,5.07
2022-11-03T21:36:30.645Z,4.50
2022-11-03T21:38:57.495Z,5.00
2022-11-03T21:41:43.004Z,4.23
2022-11-03T21:44:15.936Z,3.87
2022-11-03T21:46:43.692Z,4.30
2022-11-03T21:49:29.298Z,4.10
2022-11-03T21:51:56.078Z,4.03
2022-11-03T21:54:22.986Z,3.57
2022-11-03T21:56:49.765Z,3.83
2022-11-03T21:59:16.741Z,4.00
2022-11-03T22:01:43.885Z,3.47
2022-11-03T22:04:10.732Z,3.73
2022-11-03T22:06:37.542Z,3.77
2022-11-03T22:09:04.478Z,3.97
2022-11-03T22:11:31.248Z,4.20
2022-11-03T22:13:59.846Z,3.87
2022-11-03T22:16:36.927Z,4.27
2022-11-03T22:19:25.327Z,3.87
2022-11-03T22:22:11.544Z,4.13
2022-11-03T22:24:58.153Z,3.87
2022-11-03T22:27:26.126Z,3.87
2022-11-03T22:30:11.811Z,4.10
2022-11-03T22:32:39.014Z,3.97
2022-11-03T22:35:26.794Z,3.70
2022-11-03T22:38:03.532Z,3.80
2022-11-03T22:40:48.702Z,3.60
2022-11-03T22:43:34.207Z,3.20
2022-11-03T22:46:01.263Z,3.73
2022-11-03T22:48:28.373Z,3.80
2022-11-03T22:50:57.128Z,4.10
2022-11-03T22:53:42.758Z,4.60
2022-11-03T22:56:10.099Z,4.83
2022-11-03T22:58:37.039Z,4.90
2022-11-03T23:01:15.886Z,4.80
2022-11-03T23:03:45.405Z,5.03
2022-11-03T23:06:15.284Z,4.53
2022-11-03T23:08:43.804Z,4.87
2022-11-03T23:11:19.862Z,4.97
2022-11-03T23:13:52.183Z,5.07
2022-11-03T23:16:22.245Z,4.37
2022-11-03T23:19:07.458Z,4.73
2022-11-03T23:21:35.447Z,4.80
2022-11-03T23:24:20.773Z,4.83
2022-11-03T23:26:47.911Z,4.77
2022-11-03T23:29:15.174Z,5.03
2022-11-03T23:31:43.474Z,4.47
2022-11-03T23:34:11.537Z,5.07
2022-11-03T23:36:38.720Z,5.67
2022-11-03T23:39:06.429Z,5.30
2022-11-03T23:41:33.677Z,4.77
2022-11-03T23:44:00.456Z,4.83
2022-11-03T23:46:47.091Z,4.63
2022-11-03T23:49:14.489Z,4.83
2022-11-03T23:51:42.120Z,4.77
2022-11-03T23:54:11.067Z,4.83
2022-11-03T23:56:58.722Z,5.27
2022-11-03T23:59:26.520Z,4.57
